Time;durP1;ratioP1;P1;durP2;ratioP2;P2;SDS_P1;SDS_P2;PMS_P1;PMS_P2;Temp;Humidity;BMP_temperature;BMP_pressure;BME280_temperature;BME280_humidity;BME280_pressure;Samples;Min_cycle;Max_cycle;Signal;HPM_P1;HPM_P2
2022/05/06 00:00:26;;;;;;;;;15.67;15.67;;;;;14.53;52.58;102287.63;4973784;28;54402;-64
2022/05/06 00:02:52;;;;;;;;;15.67;15.67;;;;;14.46;52.78;102288.84;4958694;28;60579;-64
2022/05/06 00:05:17;;;;;;;;;19.00;15.00;;;;;14.44;53.06;102290.69;4959023;28;45910;-64
2022/05/06 00:07:42;;;;;;;;;19.33;18.33;;;;;14.41;53.04;102293.50;4958011;28;63932;-64
2022/05/06 00:10:09;;;;;;;;;20.67;17.33;;;;;14.40;53.28;102289.94;4958474;28;57021;-63
2022/05/06 00:12:35;;;;;;;;;18.00;16.00;;;;;14.41;53.77;102293.50;4960087;28;45465;-63
2022/05/06 00:15:00;;;;;;;;;17.67;13.33;;;;;14.44;53.45;102285.34;4960574;28;56428;-64
2022/05/06 00:17:26;;;;;;;;;20.67;19.67;;;;;14.47;53.45;102294.13;4959996;28;45420;-64
2022/05/06 00:19:51;;;;;;;;;23.33;19.33;;;;;14.48;53.38;102286.94;4959735;28;45530;-64
2022/05/06 00:22:17;;;;;;;;;20.33;17.67;;;;;14.50;53.15;102285.94;4956364;28;45455;-63
2022/05/06 00:24:42;;;;;;;;;18.33;16.67;;;;;14.55;53.34;102283.09;4960613;28;45892;-64
2022/05/06 00:27:07;;;;;;;;;23.67;21.67;;;;;14.60;53.29;102285.53;4960540;28;63450;-64
2022/05/06 00:29:33;;;;;;;;;24.33;21.67;;;;;14.63;53.05;102285.44;4958138;28;48985;-64
2022/05/06 00:31:59;;;;;;;;;23.00;20.33;;;;;14.66;53.36;102288.00;4960142;28;45614;-64
2022/05/06 00:34:24;;;;;;;;;19.33;17.33;;;;;14.68;53.36;102289.66;4960709;28;45784;-64
2022/05/06 00:36:50;;;;;;;;;21.33;19.00;;;;;14.71;53.37;102281.50;4971520;28;45515;-64
2022/05/06 00:39:15;;;;;;;;;17.00;17.00;;;;;14.75;53.08;102290.25;4958908;28;57535;-64
2022/05/06 00:41:41;;;;;;;;;22.67;21.33;;;;;14.77;52.95;102296.44;4959753;28;55252;-64
2022/05/06 00:44:07;;;;;;;;;18.67;18.67;;;;;14.79;53.14;102296.38;4959098;28;46225;-63
2022/05/06 00:46:32;;;;;;;;;24.33;19.67;;;;;14.78;52.99;102294.63;4959402;28;45730;-63
2022/05/06 00:48:58;;;;;;;;;24.00;22.00;;;;;14.78;52.93;102289.25;4956732;28;45466;-64
2022/05/06 00:51:23;;;;;;;;;22.33;17.00;;;;;14.78;52.97;102292.78;4957052;28;61012;-64
2022/05/06 00:53:48;;;;;;;;;21.33;20.33;;;;;14.80;53.15;102290.94;4956409;28;58996;-63
2022/05/06 00:56:15;;;;;;;;;21.00;20.00;;;;;14.80;53.03;102285.56;4956783;28;48746;-64
2022/05/06 00:58:40;;;;;;;;;20.33;17.67;;;;;14.79;53.18;102286.50;4956525;28;45552;-64
2022/05/06 01:01:09;;;;;;;;;24.33;20.33;;;;;14.78;53.22;102286.56;4958287;28;45352;-64
2022/05/06 01:03:34;;;;;;;;;20.00;17.33;;;;;14.77;53.01;102283.03;4958579;28;46193;-63
2022/05/06 01:06:03;;;;;;;;;18.33;17.67;;;;;14.74;52.98;102284.97;4960282;28;45345;-64
2022/05/06 01:08:29;;;;;;;;;20.33;19.67;;;;;14.69;53.56;102279.81;4960845;28;45292;-63
2022/05/06 01:10:54;;;;;;;;;16.67;15.00;;;;;14.62;53.44;102279.19;4958474;28;45337;-64
2022/05/06 01:13:21;;;;;;;;;19.00;19.00;;;;;14.58;53.34;102282.94;4959271;28;67082;-64
2022/05/06 01:15:46;;;;;;;;;20.00;18.67;;;;;14.52;53.40;102280.50;4960132;28;45318;-64
2022/05/06 01:18:12;;;;;;;;;21.67;17.00;;;;;14.46;53.61;102281.66;4960527;28;45477;-64
2022/05/06 01:20:38;;;;;;;;;22.00;17.00;;;;;14.46;53.55;102275.44;4961029;28;45377;-64
2022/05/06 01:23:04;;;;;;;;;17.33;16.33;;;;;14.45;53.85;102285.28;4958167;28;46952;-64
2022/05/06 01:25:29;;;;;;;;;22.67;20.00;;;;;14.43;53.76;102286.28;4959249;28;45273;-64
2022/05/06 01:27:57;;;;;;;;;22.33;20.00;;;;;14.36;54.02;102283.00;4958689;28;58943;-64
2022/05/06 01:30:36;;;;;;;;;22.33;18.67;;;;;14.33;53.92;102286.66;4959932;28;45565;-64
2022/05/06 01:33:05;;;;;;;;;18.00;18.00;;;;;14.29;53.60;102285.06;4959295;28;46142;-64
2022/05/06 01:35:32;;;;;;;;;22.00;20.00;;;;;14.22;54.13;102280.88;4960400;28;45425;-64
2022/05/06 01:38:03;;;;;;;;;19.33;18.00;;;;;14.15;54.14;102277.59;4957861;28;45564;-64
2022/05/06 01:40:28;;;;;;;;;25.67;20.33;;;;;14.14;54.32;102285.69;4959148;28;45313;-64
2022/05/06 01:42:57;;;;;;;;;20.67;20.33;;;;;14.10;54.54;102276.06;4938012;28;64809;-64
2022/05/06 01:45:22;;;;;;;;;21.00;21.00;;;;;14.06;54.48;102278.84;4958593;28;45454;-64
2022/05/06 01:47:48;;;;;;;;;23.33;20.67;;;;;14.03;54.69;102270.09;4959139;28;45555;-64
2022/05/06 01:50:14;;;;;;;;;23.00;21.67;;;;;13.99;54.47;102269.34;4940750;28;45491;-64
2022/05/06 01:52:39;;;;;;;;;23.33;19.00;;;;;13.97;54.58;102279.22;4958923;28;45350;-64
2022/05/06 01:55:08;;;;;;;;;26.00;25.33;;;;;13.94;54.74;102282.03;4978505;28;45314;-64
2022/05/06 01:57:33;;;;;;;;;21.00;21.00;;;;;13.92;54.59;102289.25;4978492;28;52227;-64
2022/05/06 01:59:59;;;;;;;;;22.33;22.00;;;;;13.87;54.96;102286.78;4952021;28;45334;-64
2022/05/06 02:02:24;;;;;;;;;21.33;19.00;;;;;13.85;55.11;102288.63;4975779;28;48305;-64
2022/05/06 02:07:33;;;;;;;;;22.67;19.33;;;;;13.80;55.01;102285.25;4979280;28;45543;-64
2022/05/06 02:09:59;;;;;;;;;23.67;19.67;;;;;13.77;55.33;102290.75;4977851;28;62019;-64
2022/05/06 02:12:25;;;;;;;;;23.33;23.33;;;;;13.72;55.35;102280.22;4978431;28;65911;-64
2022/05/06 02:14:50;;;;;;;;;27.33;23.67;;;;;13.68;55.32;102281.28;4978655;28;45504;-64
2022/05/06 02:17:16;;;;;;;;;24.00;22.67;;;;;13.64;55.43;102285.00;4978276;28;61016;-63
2022/05/06 02:19:42;;;;;;;;;19.67;17.67;;;;;13.61;55.78;102287.81;4978976;28;62124;-63
2022/05/06 02:22:08;;;;;;;;;23.00;22.00;;;;;13.55;55.52;102282.69;4961692;28;45346;-64
2022/05/06 02:24:33;;;;;;;;;21.33;21.00;;;;;13.52;55.81;102280.16;4978203;28;63317;-63
2022/05/06 02:26:58;;;;;;;;;28.67;25.33;;;;;13.49;55.96;102280.25;4977447;28;58375;-64
2022/05/06 02:29:24;;;;;;;;;28.33;24.00;;;;;13.46;55.76;102277.72;4978783;28;45286;-63
2022/05/06 02:34:34;;;;;;;;;30.00;26.00;;;;;13.41;56.32;102283.22;4978951;28;45461;-63
2022/05/06 02:36:59;;;;;;;;;28.33;23.33;;;;;13.37;56.05;102281.59;4979020;28;45306;-64
2022/05/06 02:39:25;;;;;;;;;27.67;24.00;;;;;13.33;56.61;102290.63;4976823;28;62620;-63
2022/05/06 02:41:51;;;;;;;;;25.33;23.33;;;;;13.27;56.20;102281.06;4978437;28;45315;-63
2022/05/06 02:44:17;;;;;;;;;32.00;26.67;;;;;13.20;56.58;102276.88;4978672;28;45188;-63
2022/05/06 02:46:43;;;;;;;;;22.67;22.67;;;;;13.15;56.41;102286.84;4976176;28;45600;-63
2022/05/06 02:49:08;;;;;;;;;30.00;28.00;;;;;13.10;56.75;102283.47;4977201;28;60239;-65
2022/05/06 02:51:33;;;;;;;;;25.67;24.00;;;;;13.07;56.74;102290.69;4978101;28;63637;-63
2022/05/06 02:53:59;;;;;;;;;25.00;22.33;;;;;13.05;56.76;102289.88;4977051;28;63634;-63
2022/05/06 02:56:24;;;;;;;;;35.67;30.33;;;;;13.02;56.89;102292.66;4978281;28;49593;-64
2022/05/06 02:58:50;;;;;;;;;23.67;23.00;;;;;12.98;57.19;102298.16;4977698;28;54547;-64
2022/05/06 03:01:15;;;;;;;;;30.00;23.00;;;;;12.93;57.13;102290.31;4979116;28;46165;-64
2022/05/06 03:03:41;;;;;;;;;28.67;24.33;;;;;12.89;57.13;102294.91;4964022;28;45254;-64
2022/05/06 03:06:06;;;;;;;;;26.33;25.67;;;;;12.87;57.12;102290.56;4981859;28;45370;-63
2022/05/06 03:08:32;;;;;;;;;23.00;22.33;;;;;12.85;57.11;102292.38;4981942;28;45298;-63
2022/05/06 03:10:58;;;;;;;;;28.67;24.33;;;;;12.85;57.12;102298.63;4980546;28;65155;-63
2022/05/06 03:13:24;;;;;;;;;27.33;24.00;;;;;12.85;57.29;102289.72;4981695;28;45325;-63
2022/05/06 03:15:49;;;;;;;;;32.00;26.00;;;;;12.83;57.70;102296.94;4980002;28;58386;-63
2022/05/06 03:18:14;;;;;;;;;25.33;25.33;;;;;12.80;57.43;102295.25;4963544;28;59124;-63
2022/05/06 03:20:40;;;;;;;;;27.00;23.00;;;;;12.77;58.03;102300.66;4981146;28;46121;-63
2022/05/06 03:23:06;;;;;;;;;25.33;23.00;;;;;12.73;57.94;102297.22;4964205;28;45699;-63
2022/05/06 03:25:31;;;;;;;;;29.67;26.00;;;;;12.70;57.64;102294.69;4981446;28;45484;-63
2022/05/06 03:28:00;;;;;;;;;25.67;23.33;;;;;12.69;57.72;102298.28;4980555;28;58173;-63
2022/05/06 03:30:26;;;;;;;;;26.00;21.33;;;;;12.68;57.56;102293.84;4979837;28;45471;-63
2022/05/06 03:32:51;;;;;;;;;34.67;27.00;;;;;12.66;57.87;102298.38;4963877;28;45408;-65
2022/05/06 03:35:17;;;;;;;;;29.00;24.67;;;;;12.65;57.54;102296.63;4963468;28;45682;-63
2022/05/06 03:37:43;;;;;;;;;30.67;24.33;;;;;12.65;57.83;102293.97;4963426;28;45500;-63
2022/05/06 03:40:09;;;;;;;;;31.00;28.33;;;;;12.65;57.67;102298.44;4963390;28;46920;-63
2022/05/06 03:42:35;;;;;;;;;28.33;25.67;;;;;12.64;57.88;102297.56;4964035;28;45569;-64
2022/05/06 03:45:02;;;;;;;;;30.33;26.67;;;;;12.64;58.06;102300.22;4977960;28;45420;-63
2022/05/06 03:47:27;;;;;;;;;29.00;22.67;;;;;12.64;57.89;102302.03;4962017;28;45450;-63
2022/05/06 03:52:37;;;;;;;;;28.00;25.00;;;;;12.60;57.85;102301.25;4978917;28;45297;-63
2022/05/06 03:55:03;;;;;;;;;31.00;28.00;;;;;12.61;57.96;102302.16;4959806;28;58450;-63
2022/05/06 03:57:28;;;;;;;;;25.00;21.67;;;;;12.56;57.96;102308.50;4947072;28;45443;-63
2022/05/06 03:59:54;;;;;;;;;28.00;23.67;;;;;12.56;58.18;102313.84;4977697;28;63417;-63
2022/05/06 04:02:20;;;;;;;;;31.67;25.67;;;;;12.58;58.17;102308.47;4962669;28;45369;-63
2022/05/06 04:04:45;;;;;;;;;28.00;24.00;;;;;12.60;58.00;102306.59;4963487;28;45676;-63
2022/05/06 04:07:11;;;;;;;;;28.67;23.00;;;;;12.60;58.02;102316.41;4962883;28;45479;-63
2022/05/06 04:09:36;;;;;;;;;25.33;23.67;;;;;12.60;58.28;102306.59;4980543;28;45483;-63
2022/05/06 04:12:02;;;;;;;;;30.00;28.67;;;;;12.58;57.93;102305.81;4962493;28;54253;-63
2022/05/06 04:14:27;;;;;;;;;22.67;22.33;;;;;12.58;58.09;102314.66;4963602;28;45402;-63
2022/05/06 04:16:52;;;;;;;;;26.33;22.33;;;;;12.60;58.07;102317.28;4980626;28;45350;-64
2022/05/06 04:19:18;;;;;;;;;26.67;26.67;;;;;12.59;58.01;102323.53;4980532;28;46039;-64
2022/05/06 04:24:27;;;;;;;;;27.67;22.00;;;;;12.53;58.39;102321.97;4980471;28;45495;-64
2022/05/06 04:26:52;;;;;;;;;28.00;27.00;;;;;12.52;58.16;102312.19;4980453;28;45556;-64
2022/05/06 04:29:18;;;;;;;;;29.00;24.67;;;;;12.51;58.07;102323.78;4945438;28;69188;-64
2022/05/06 04:31:43;;;;;;;;;28.67;22.33;;;;;12.50;58.50;102310.50;4980113;28;45384;-64
2022/05/06 04:34:09;;;;;;;;;27.67;25.33;;;;;12.49;58.38;102324.78;4979881;28;60079;-64
2022/05/06 04:36:34;;;;;;;;;30.33;27.00;;;;;12.47;58.45;102324.81;4980898;28;45611;-64
2022/05/06 04:39:00;;;;;;;;;26.33;22.00;;;;;12.47;58.33;102331.97;4979846;28;45561;-64
2022/05/06 04:41:26;;;;;;;;;23.67;23.00;;;;;12.45;58.17;102324.03;4962526;28;45417;-64
2022/05/06 04:43:51;;;;;;;;;25.67;22.67;;;;;12.41;58.70;102338.38;4962473;28;45333;-64
2022/05/06 04:46:17;;;;;;;;;29.33;25.67;;;;;12.35;58.66;102331.44;4979611;28;58685;-64
2022/05/06 04:48:42;;;;;;;;;30.00;26.67;;;;;12.34;58.67;102331.50;4979551;28;60626;-64
2022/05/06 04:51:07;;;;;;;;;27.00;25.00;;;;;12.36;58.31;102343.03;4979488;28;63296;-64
2022/05/06 04:53:33;;;;;;;;;27.67;24.00;;;;;12.38;58.58;102338.47;4962709;28;47262;-64
2022/05/06 04:55:58;;;;;;;;;23.67;22.33;;;;;12.40;58.42;102348.19;4980781;28;47207;-65
2022/05/06 04:58:24;;;;;;;;;29.67;24.00;;;;;12.39;58.42;102342.91;4980281;28;45326;-64
2022/05/06 05:00:49;;;;;;;;;19.67;19.67;;;;;12.38;58.39;102343.81;4979257;28;45345;-64
2022/05/06 05:03:15;;;;;;;;;38.67;26.00;;;;;12.39;58.50;102345.56;4979674;28;57425;-64
2022/05/06 05:05:40;;;;;;;;;31.67;24.67;;;;;12.42;58.50;102342.78;4962588;28;45618;-64
2022/05/06 05:08:08;;;;;;;;;27.00;25.33;;;;;12.45;58.56;102348.03;4980356;28;45458;-64
2022/05/06 05:10:34;;;;;;;;;22.00;20.67;;;;;12.48;58.66;102345.25;4979171;28;45520;-64
2022/05/06 05:12:59;;;;;;;;;24.00;24.00;;;;;12.54;58.18;102352.19;4979454;28;45408;-65
2022/05/06 05:15:25;;;;;;;;;26.00;24.00;;;;;12.58;58.33;102340.50;4978740;28;45652;-64
2022/05/06 05:17:50;;;;;;;;;24.67;24.67;;;;;12.62;58.22;102342.13;4978548;28;45441;-64
2022/05/06 05:20:16;;;;;;;;;28.33;24.33;;;;;12.61;58.27;102342.19;4979583;28;45626;-64
2022/05/06 05:22:41;;;;;;;;;27.00;21.33;;;;;12.63;57.97;102343.84;4978492;28;58590;-64
2022/05/06 05:25:07;;;;;;;;;26.00;22.67;;;;;12.67;57.95;102349.97;4978675;28;54376;-64
2022/05/06 05:27:33;;;;;;;;;28.67;27.33;;;;;12.70;58.01;102344.53;4962240;28;46148;-64
2022/05/06 05:29:58;;;;;;;;;28.67;24.00;;;;;12.73;58.03;102355.09;4960833;28;45286;-64
2022/05/06 05:32:24;;;;;;;;;25.33;24.00;;;;;12.74;58.11;102357.72;4962592;28;45418;-64
2022/05/06 05:34:49;;;;;;;;;28.00;24.67;;;;;12.76;58.00;102356.81;4979801;28;45480;-64
2022/05/06 05:37:15;;;;;;;;;28.33;23.33;;;;;12.75;57.98;102355.94;4944455;28;65837;-64
2022/05/06 05:39:41;;;;;;;;;27.33;24.67;;;;;12.76;58.23;102364.81;4977417;28;45457;-64
2022/05/06 05:42:07;;;;;;;;;27.67;25.33;;;;;12.80;57.81;102367.34;4979625;28;45406;-64
2022/05/06 05:50:01;;;;;;;;;25.00;19.33;;;;;12.89;57.79;102366.13;4959121;28;45714;-64
2022/05/06 05:52:27;;;;;;;;;27.33;22.33;;;;;12.93;57.80;102359.75;4960894;28;45671;-64
2022/05/06 05:54:53;;;;;;;;;30.33;26.33;;;;;12.98;57.45;102359.59;4959023;28;45833;-64
2022/05/06 05:57:18;;;;;;;;;28.33;22.67;;;;;13.05;57.48;102363.81;4943835;28;46227;-65
2022/05/06 05:59:43;;;;;;;;;26.67;24.67;;;;;13.08;57.42;102356.53;4975980;28;64323;-63
2022/05/06 06:02:10;;;;;;;;;30.00;27.00;;;;;13.14;57.51;102357.22;4975629;28;60386;-64
2022/05/06 06:04:36;;;;;;;;;32.33;26.00;;;;;13.14;57.45;102358.13;4977495;28;46246;-64
2022/05/06 06:07:01;;;;;;;;;29.33;25.00;;;;;13.19;57.49;102349.94;4976766;28;45216;-64
2022/05/06 06:09:28;;;;;;;;;31.33;27.67;;;;;13.21;57.27;102351.63;4976543;28;45662;-64
2022/05/06 06:11:53;;;;;;;;;36.00;29.33;;;;;13.27;57.20;102347.88;4977112;28;45376;-64
2022/05/06 06:14:18;;;;;;;;;29.33;27.00;;;;;13.35;57.08;102347.56;4959512;28;60751;-64
2022/05/06 06:16:44;;;;;;;;;33.00;28.33;;;;;13.44;57.17;102351.72;4976999;28;45407;-64
2022/05/06 06:19:10;;;;;;;;;29.67;27.33;;;;;13.55;57.08;102349.53;4977324;28;58861;-63
2022/05/06 06:21:35;;;;;;;;;31.33;26.67;;;;;13.65;56.95;102345.56;4976331;28;45378;-63
2022/05/06 06:24:01;;;;;;;;;27.33;26.67;;;;;13.75;56.69;102348.75;4976575;28;45458;-63
2022/05/06 06:26:26;;;;;;;;;26.67;25.33;;;;;13.87;56.52;102348.28;4960010;28;45339;-63
2022/05/06 06:28:52;;;;;;;;;30.00;27.33;;;;;14.06;56.20;102350.22;4976822;28;61996;-63
2022/05/06 06:31:17;;;;;;;;;37.33;30.00;;;;;14.30;55.84;102355.50;4977117;28;45483;-68
2022/05/06 06:33:43;;;;;;;;;31.00;25.00;;;;;14.57;55.52;102364.19;4974716;28;57268;-67
2022/05/06 06:36:08;;;;;;;;;31.00;24.00;;;;;14.89;55.11;102362.00;4976479;28;46244;-61
2022/05/06 06:38:33;;;;;;;;;31.33;26.33;;;;;15.21;54.75;102360.56;4978781;28;45357;-64
2022/05/06 06:40:59;;;;;;;;;28.00;26.00;;;;;15.56;53.91;102362.56;4977375;28;60305;-64
2022/05/06 06:43:25;;;;;;;;;31.67;28.67;;;;;15.86;53.75;102359.41;4979295;28;45717;-64
2022/05/06 06:45:50;;;;;;;;;28.00;25.00;;;;;16.15;53.04;102366.06;4978268;28;46133;-64
2022/05/06 06:48:16;;;;;;;;;30.67;27.00;;;;;16.47;52.47;102368.09;4979321;28;45373;-64
2022/05/06 06:50:41;;;;;;;;;26.67;26.00;;;;;16.76;51.63;102361.22;4978425;28;45330;-65
2022/05/06 06:53:06;;;;;;;;;36.00;30.00;;;;;17.04;50.97;102367.91;4940085;28;1161180;-65
2022/05/06 06:55:32;;;;;;;;;29.33;26.33;;;;;17.35;50.65;102361.75;4981801;28;47076;-65
2022/05/06 06:57:57;;;;;;;;;25.67;24.33;;;;;17.65;50.63;102355.66;4980875;28;60255;-65
2022/05/06 07:00:23;;;;;;;;;30.33;28.33;;;;;17.94;49.86;102358.56;4984345;28;45941;-66
2022/05/06 07:02:49;;;;;;;;;27.67;25.00;;;;;18.31;49.45;102358.25;4980073;28;58313;-64
2022/05/06 07:05:15;;;;;;;;;27.67;27.00;;;;;18.73;48.71;102353.97;4981107;28;45432;-66
2022/05/06 07:13:08;;;;;;;;;30.67;29.67;;;;;19.94;46.92;102355.47;4980719;28;45814;-64
2022/05/06 07:15:33;;;;;;;;;25.00;23.67;;;;;20.37;45.09;102359.88;4963122;28;63015;-64
2022/05/06 07:17:59;;;;;;;;;28.33;26.67;;;;;20.81;45.39;102360.56;4981131;28;45420;-64
2022/05/06 07:20:24;;;;;;;;;32.33;31.67;;;;;21.21;43.68;102365.00;4980791;28;48788;-63
2022/05/06 07:22:50;;;;;;;;;32.00;28.67;;;;;21.59;43.42;102359.59;4980237;28;56881;-65
2022/05/06 07:25:15;;;;;;;;;25.67;23.00;;;;;22.11;42.46;102364.84;4980847;28;46377;-64
2022/05/06 07:27:40;;;;;;;;;36.00;31.67;;;;;22.64;42.07;102367.22;4979902;28;66558;-65
2022/05/06 07:30:06;;;;;;;;;33.00;29.33;;;;;23.08;40.91;102362.88;4980727;28;53013;-65
2022/05/06 07:32:32;;;;;;;;;30.00;27.67;;;;;23.55;40.28;102368.22;4981377;28;45483;-65
2022/05/06 07:34:57;;;;;;;;;29.33;28.00;;;;;23.94;40.18;102357.84;4980603;28;46105;-65
2022/05/06 07:37:23;;;;;;;;;29.33;26.00;;;;;24.30;39.22;102363.06;4980570;28;54457;-65
2022/05/06 07:39:48;;;;;;;;;29.00;25.67;;;;;24.68;38.46;102360.78;4980671;28;45468;-65
2022/05/06 07:42:14;;;;;;;;;28.00;22.00;;;;;25.15;38.30;102361.25;4980252;28;58641;-66
2022/05/06 07:44:40;;;;;;;;;18.67;18.67;;;;;25.67;37.37;102368.50;4980184;28;46378;-66
2022/05/06 07:47:05;;;;;;;;;23.67;20.67;;;;;26.29;36.15;102362.91;4979179;28;61480;-66
2022/05/06 07:49:31;;;;;;;;;25.33;25.33;;;;;26.99;34.40;102358.13;4981203;28;45343;-66
2022/05/06 07:51:56;;;;;;;;;29.00;24.67;;;;;27.58;34.27;102365.28;4980705;28;45236;-66
2022/05/06 07:54:21;;;;;;;;;25.33;23.67;;;;;27.88;33.86;102359.47;4979851;28;62950;-66
2022/05/06 07:56:47;;;;;;;;;23.33;22.00;;;;;28.03;32.90;102354.38;4972855;28;66904;-66
2022/05/06 07:59:12;;;;;;;;;24.33;22.00;;;;;28.30;33.35;102359.94;4963265;28;45780;-67
2022/05/06 08:04:36;;;;;;;;;25.33;22.33;;;;;28.99;31.93;102355.53;4971957;28;45680;-67
2022/05/06 08:07:02;;;;;;;;;28.67;23.00;;;;;29.29;32.03;102347.84;4981932;28;45540;-67
2022/05/06 08:09:28;;;;;;;;;25.33;21.67;;;;;29.61;31.26;102343.53;4983909;28;45386;-67
2022/05/06 08:11:53;;;;;;;;;22.00;22.00;;;;;29.94;30.81;102360.09;4978808;28;45460;-67
2022/05/06 08:14:19;;;;;;;;;23.00;20.00;;;;;30.30;30.27;102354.34;4979835;28;46071;-67
2022/05/06 08:16:45;;;;;;;;;23.00;19.00;;;;;30.77;29.90;102352.81;4980294;28;45326;-66
2022/05/06 08:19:11;;;;;;;;;19.00;16.00;;;;;31.55;29.49;102352.25;4963239;28;45533;-67
2022/05/06 08:21:36;;;;;;;;;22.67;19.00;;;;;32.64;28.53;102352.22;4979422;28;45351;-67
2022/05/06 08:24:02;;;;;;;;;19.00;16.67;;;;;33.85;26.41;102349.31;4973345;28;46823;-66
2022/05/06 08:26:30;;;;;;;;;18.67;17.67;;;;;35.01;25.44;102347.41;4976657;28;45472;-66
2022/05/06 08:28:55;;;;;;;;;12.00;11.00;;;;;36.05;24.48;102354.66;4980246;28;45720;-66
2022/05/06 08:31:21;;;;;;;;;13.33;13.33;;;;;36.80;23.08;102348.06;4962899;28;45511;-66
2022/05/06 08:33:46;;;;;;;;;17.67;14.67;;;;;37.43;23.14;102352.19;4980190;28;45926;-65
2022/05/06 08:36:12;;;;;;;;;11.33;11.33;;;;;38.31;22.26;102350.66;4962192;28;45488;-60
2022/05/06 08:38:37;;;;;;;;;16.67;13.67;;;;;39.24;19.16;102350.00;4962433;28;45511;-60
2022/05/06 08:41:03;;;;;;;;;19.00;15.67;;;;;39.75;20.39;102348.69;4979015;28;61977;-60
2022/05/06 08:43:28;;;;;;;;;15.67;13.67;;;;;40.44;19.78;102347.41;4980882;28;45659;-66
2022/05/06 08:51:31;;;;;;;;;13.00;11.33;;;;;41.54;17.74;102342.09;4953323;28;45626;-65
2022/05/06 08:53:56;;;;;;;;;11.00;9.67;;;;;42.05;17.60;102336.63;4961638;28;45582;-65
2022/05/06 08:56:22;;;;;;;;;12.33;11.00;;;;;42.33;16.94;102345.19;4965761;28;45487;-65
2022/05/06 08:58:47;;;;;;;;;10.67;10.33;;;;;42.74;17.10;102340.22;4980249;28;45647;-65
2022/05/06 09:01:13;;;;;;;;;5.00;5.00;;;;;43.22;15.36;102337.81;4974402;28;49313;-66
2022/05/06 09:03:43;;;;;;;;;13.33;12.00;;;;;43.47;16.16;102328.88;4945154;28;47228;-65
2022/05/06 09:06:22;;;;;;;;;12.67;11.00;;;;;44.24;15.96;102337.19;4979928;28;45343;-65
2022/05/06 09:08:50;;;;;;;;;15.33;11.67;;;;;45.00;15.72;102336.00;4962237;28;45490;-65
2022/05/06 09:14:07;;;;;;;;;7.50;7.50;;;;;46.82;14.39;102344.34;4971861;28;45564;-64
2022/05/06 09:16:46;;;;;;;;;6.25;6.00;;;;;47.30;12.37;102340.19;4933930;28;45485;-65
2022/05/06 09:19:11;;;;;;;;;5.75;5.00;;;;;47.36;12.92;102344.66;4980769;28;45195;-64
2022/05/06 09:21:38;;;;;;;;;5.50;5.50;;;;;47.32;12.44;102335.13;4979901;28;45573;-64
2022/05/06 09:24:19;;;;;;;;;6.00;4.75;;;;;47.34;12.38;102339.34;4979331;28;45469;-65
2022/05/06 09:27:03;;;;;;;;;4.50;4.00;;;;;47.25;12.76;102343.03;4976670;28;45323;-65
2022/05/06 09:29:29;;;;;;;;;4.25;4.25;;;;;47.70;12.21;102329.81;4979758;28;45338;-65
2022/05/06 09:31:56;;;;;;;;;8.75;8.75;;;;;47.85;11.16;102328.88;4979612;28;45317;-65
2022/05/06 09:34:26;;;;;;;;;5.25;5.25;;;;;48.15;11.30;102332.53;4962056;28;46380;-65
2022/05/06 09:36:51;;;;;;;;;24.33;22.67;;;;;48.70;11.27;102326.66;4978938;28;45469;-65
2022/05/06 09:39:17;;;;;;;;;4.50;4.50;;;;;48.04;11.18;102318.53;4961428;28;58070;-64
2022/05/06 09:41:42;;;;;;;;;6.50;6.50;;;;;47.72;11.91;102324.75;4978762;28;52985;-64
2022/05/06 09:44:09;;;;;;;;;4.75;4.75;;;;;46.10;12.40;102323.91;4974432;28;45510;-64
2022/05/06 09:46:34;;;;;;;;;7.50;7.00;;;;;44.77;13.11;102323.28;4977597;28;45520;-64
2022/05/06 09:49:01;;;;;;;;;7.00;5.50;;;;;43.24;13.95;102319.66;4976811;28;45722;-64
2022/05/06 09:51:28;;;;;;;;;5.50;4.50;;;;;44.48;13.48;102325.63;4977872;28;45475;-64
2022/05/06 09:53:54;;;;;;;;;5.00;5.00;;;;;45.98;13.19;102315.78;4974603;28;46153;-64
2022/05/06 09:56:20;;;;;;;;;5.00;4.25;;;;;47.20;11.91;102327.03;4981839;28;45298;-65
2022/05/06 09:58:46;;;;;;;;;7.75;6.25;;;;;48.06;11.18;102321.09;4978842;28;45234;-64
2022/05/06 10:01:11;;;;;;;;;6.00;6.00;;;;;48.38;11.29;102316.00;4978838;28;45409;-63
2022/05/06 10:03:37;;;;;;;;;6.00;6.00;;;;;48.84;10.86;102313.50;4959074;28;46093;-64
2022/05/06 10:06:04;;;;;;;;;5.75;5.25;;;;;49.08;10.66;102323.91;4976460;28;45373;-64
2022/05/06 10:08:30;;;;;;;;;6.50;5.25;;;;;49.02;9.69;102308.19;4963066;28;45463;-64
2022/05/06 10:10:59;;;;;;;;;5.25;5.00;;;;;49.17;9.96;102315.63;4942520;28;45623;-64
2022/05/06 10:13:26;;;;;;;;;6.00;6.00;;;;;49.32;9.90;102315.41;4961329;28;46463;-64
2022/05/06 10:15:52;;;;;;;;;15.67;15.00;;;;;49.36;9.55;102309.16;4943969;28;45552;-64
2022/05/06 10:18:44;;;;;;;;;6.25;6.25;;;;;49.66;9.80;102310.66;4978844;28;45381;-64
2022/05/06 10:21:13;;;;;;;;;5.00;5.00;;;;;50.16;10.01;102307.25;4980443;28;45475;-65
2022/05/06 10:23:42;;;;;;;;;5.25;5.25;;;;;50.64;8.86;102306.88;4977846;28;46315;-65
2022/05/06 10:26:08;;;;;;;;;5.00;5.00;;;;;50.93;8.20;102307.72;4961073;28;45393;-64
2022/05/06 10:34:11;;;;;;;;;5.50;5.50;;;;;50.97;8.65;102303.09;4978151;28;45529;-64
2022/05/06 10:36:50;;;;;;;;;5.50;5.00;;;;;51.18;9.64;102296.97;4978535;28;45204;-64
2022/05/06 10:39:22;;;;;;;;;9.00;7.00;;;;;51.54;8.74;102294.13;4978086;28;45323;-63
2022/05/06 10:42:09;;;;;;;;;5.50;5.50;;;;;51.78;8.42;102292.97;4978183;28;45176;-64
2022/05/06 10:44:42;;;;;;;;;4.00;4.00;;;;;51.82;7.83;102293.16;4974655;28;45392;-64
2022/05/06 10:47:16;;;;;;;;;5.25;5.25;;;;;51.39;8.06;102292.47;4976721;28;45489;-64
2022/05/06 10:49:43;;;;;;;;;7.00;7.00;;;;;50.26;7.96;102287.28;4974117;28;45453;-64
2022/05/06 10:52:23;;;;;;;;;6.75;6.50;;;;;50.42;8.97;102284.13;4975801;28;45640;-64
2022/05/06 10:54:58;;;;;;;;;6.00;6.00;;;;;50.87;9.24;102280.66;4976274;28;46245;-64
2022/05/06 10:57:24;;;;;;;;;6.75;6.75;;;;;51.31;9.16;102279.09;4959085;28;45592;-65
2022/05/06 10:59:50;;;;;;;;;4.00;4.00;;;;;51.62;8.15;102279.16;4971845;28;45370;-65
2022/05/06 11:02:16;;;;;;;;;4.75;4.00;;;;;51.29;8.68;102284.22;4976724;28;45290;-65
2022/05/06 11:04:41;;;;;;;;;8.00;5.25;;;;;49.17;9.13;102279.75;4977552;28;46153;-65
2022/05/06 11:07:14;;;;;;;;;6.00;6.00;;;;;49.28;9.37;102271.13;4977841;28;45312;-65
2022/05/06 11:09:39;;;;;;;;;6.00;5.50;;;;;50.07;9.58;102273.22;4936277;28;45773;-66
2022/05/06 11:12:06;;;;;;;;;3.50;3.50;;;;;50.82;8.72;102266.63;4976282;28;45682;-66
2022/05/06 11:14:31;;;;;;;;;4.00;4.00;;;;;50.77;8.32;102270.41;4975959;28;46146;-66
2022/05/06 11:17:17;;;;;;;;;5.25;5.25;;;;;50.38;8.35;102266.97;4972868;28;45347;-65
2022/05/06 11:19:42;;;;;;;;;3.75;3.75;;;;;49.51;8.41;102266.53;4964162;28;45269;-65
2022/05/06 11:22:08;;;;;;;;;5.25;5.25;;;;;49.14;8.31;102252.13;4967994;28;61894;-64
2022/05/06 11:24:34;;;;;;;;;6.00;6.00;;;;;48.53;8.36;102256.59;4977491;28;46238;-64
2022/05/06 11:27:18;;;;;;;;;6.00;6.00;;;;;47.19;9.21;102252.97;4966307;28;45342;-63
2022/05/06 11:29:50;;;;;;;;;15.67;13.00;;;;;45.92;10.30;102253.09;4959558;28;45547;-64
2022/05/06 11:32:16;;;;;;;;;5.00;3.50;;;;;45.05;11.05;102251.00;4979223;28;45589;-63
2022/05/06 11:34:50;;;;;;;;;3.00;3.00;;;;;43.61;10.77;102248.97;4979692;28;45408;-65
2022/05/06 11:37:22;;;;;;;;;4.00;4.00;;;;;41.87;12.12;102256.72;4946775;28;45780;-64
2022/05/06 11:39:49;;;;;;;;;5.75;4.50;;;;;40.64;12.20;102253.16;4980562;28;45468;-65
2022/05/06 11:42:20;;;;;;;;;2.75;2.75;;;;;39.53;13.59;102248.13;4980684;28;46192;-65
2022/05/06 11:47:42;;;;;;;;;3.25;3.25;;;;;38.32;14.52;102235.69;4978550;28;45343;-64
2022/05/06 11:50:08;;;;;;;;;3.00;3.00;;;;;37.77;14.69;102243.81;4978619;28;45676;-64
2022/05/06 11:52:33;;;;;;;;;5.25;5.25;;;;;37.21;15.72;102246.25;4978525;28;45442;-64